Sevilla La Nueva, Spain
Current Conditions -  °F | °C
As of 7:00 PM on Tuesday 21 Oct 2014 (Local Time) from LEVS Reporting Station
Clear Clear  
Wind Chill: 77°   Ceiling: Unl
Heat Index: 78°   Visibility: 6mi
Dew Point: 50°   Wind: 8mph
Humidity: 39%   Direction: 270°W
Pressure: 30.33"   Gusts: NA
Location:  40.35°N, 4.03°W
Report Text: LEVS 211700Z 27007KT CAVOK 25/10 Q1027
Loading
Personal Weather Stations






























Interactive Weather Map New forecast layout! Learn more

10-Day Weather Forecast

Advertisements
Track Severe Weather on mobile